createdAt,value
2019-01-25T00:00:57.528Z,40.67
2019-01-25T00:03:30.115Z,45.07
2019-01-25T00:05:59.312Z,40.37
2019-01-25T00:08:32.446Z,43.40
2019-01-25T00:11:02.967Z,42.27
2019-01-25T00:13:32.379Z,44.33
2019-01-25T00:16:05.214Z,44.60
2019-01-25T00:18:34.640Z,46.33
2019-01-25T00:21:04.105Z,47.80
2019-01-25T00:23:36.593Z,44.93
2019-01-25T00:26:07.730Z,44.63
2019-01-25T00:28:37.465Z,45.47
2019-01-25T00:31:07.470Z,43.77
2019-01-25T00:33:38.736Z,45.17
2019-01-25T00:36:08.891Z,43.07
2019-01-25T00:38:43.800Z,40.90
2019-01-25T00:41:16.758Z,44.20
2019-01-25T00:43:49.671Z,46.37
2019-01-25T00:46:19.895Z,43.53
2019-01-25T00:48:49.094Z,53.23
2019-01-25T00:51:23.479Z,49.63
2019-01-25T00:53:53.035Z,44.90
2019-01-25T00:56:24.450Z,49.23
2019-01-25T00:58:53.965Z,40.67
2019-01-25T01:01:23.702Z,47.17
2019-01-25T01:03:57.116Z,45.30
2019-01-25T01:06:29.391Z,44.33
2019-01-25T01:09:03.571Z,44.10
2019-01-25T01:11:40.886Z,47.03
2019-01-25T01:14:13.307Z,43.43
2019-01-25T01:16:44.713Z,42.37
2019-01-25T01:19:14.709Z,48.33
2019-01-25T01:21:45.218Z,47.53
2019-01-25T01:24:14.705Z,44.20
2019-01-25T01:26:47.077Z,45.63
2019-01-25T01:29:21.197Z,41.53
2019-01-25T01:31:50.924Z,49.40
2019-01-25T01:34:22.413Z,51.97
2019-01-25T01:36:51.597Z,49.30
2019-01-25T01:39:21.085Z,45.63
2019-01-25T01:42:01.946Z,44.57
2019-01-25T01:44:31.994Z,49.47
2019-01-25T01:47:04.249Z,43.03
2019-01-25T01:49:33.889Z,44.37
2019-01-25T01:52:05.893Z,47.70
2019-01-25T01:54:36.205Z,48.17
2019-01-25T01:57:06.008Z,44.47
2019-01-25T01:59:37.290Z,46.97
2019-01-25T02:02:07.241Z,47.63
2019-01-25T02:04:39.952Z,44.00
2019-01-25T02:07:10.507Z,42.90
2019-01-25T02:09:42.232Z,43.17
2019-01-25T02:12:12.179Z,48.33
2019-01-25T02:14:42.856Z,42.93
2019-01-25T02:17:12.464Z,44.17
2019-01-25T02:19:43.420Z,44.20
2019-01-25T02:22:14.124Z,49.10
2019-01-25T02:24:43.889Z,44.67
2019-01-25T02:27:13.333Z,45.53
2019-01-25T02:29:46.548Z,46.37
2019-01-25T02:32:17.204Z,46.30
2019-01-25T02:34:47.891Z,50.50
2019-01-25T02:37:17.589Z,47.70
2019-01-25T02:39:48.313Z,46.07
2019-01-25T02:42:21.368Z,46.83
2019-01-25T02:44:51.985Z,48.90
2019-01-25T02:47:29.877Z,46.40
2019-01-25T02:50:00.377Z,50.23
2019-01-25T02:52:30.088Z,48.17
2019-01-25T02:55:00.612Z,46.90
2019-01-25T02:57:29.845Z,44.40
2019-01-25T03:00:03.488Z,47.43
2019-01-25T03:02:35.003Z,47.03
2019-01-25T03:05:07.333Z,44.70
2019-01-25T03:07:36.758Z,48.50
2019-01-25T03:10:12.690Z,44.30
2019-01-25T03:12:46.106Z,44.10
2019-01-25T03:15:18.362Z,46.87
2019-01-25T03:17:49.795Z,47.07
2019-01-25T03:20:22.774Z,43.80
2019-01-25T03:22:52.498Z,44.37
2019-01-25T03:25:45.626Z,49.83
2019-01-25T03:28:15.826Z,46.50
2019-01-25T03:30:46.466Z,47.07
2019-01-25T03:33:16.691Z,48.10
2019-01-25T03:35:46.200Z,56.17
2019-01-25T03:38:15.667Z,45.67
2019-01-25T03:40:46.611Z,50.87
2019-01-25T03:43:20.051Z,47.13
2019-01-25T03:45:49.831Z,46.97
2019-01-25T03:48:19.007Z,48.27
2019-01-25T03:50:48.254Z,47.20
2019-01-25T03:53:18.321Z,48.10
2019-01-25T03:55:48.599Z,47.17
2019-01-25T03:58:20.591Z,46.63
2019-01-25T04:00:50.396Z,52.80
2019-01-25T04:03:20.463Z,52.17
2019-01-25T04:05:52.383Z,47.83
2019-01-25T04:08:24.392Z,48.30
2019-01-25T04:10:54.146Z,52.07
2019-01-25T04:13:24.922Z,46.80
2019-01-25T04:15:54.702Z,48.10
2019-01-25T04:18:27.536Z,52.03
2019-01-25T04:20:56.735Z,51.00
2019-01-25T04:23:29.597Z,45.97
2019-01-25T04:25:58.969Z,46.07
2019-01-25T04:28:28.646Z,42.97
2019-01-25T04:30:58.041Z,45.77
2019-01-25T04:33:29.516Z,47.80
2019-01-25T04:35:59.936Z,41.00
2019-01-25T04:38:29.619Z,45.57
2019-01-25T04:41:01.648Z,43.90
2019-01-25T04:43:31.717Z,46.93
2019-01-25T04:46:02.483Z,44.30
2019-01-25T04:48:32.014Z,50.30
2019-01-25T04:51:10.042Z,48.40
2019-01-25T04:53:40.040Z,51.60
2019-01-25T04:56:14.720Z,51.00
2019-01-25T04:58:44.400Z,53.80
2019-01-25T05:01:13.564Z,49.90
2019-01-25T05:03:47.380Z,49.50
2019-01-25T05:06:17.911Z,46.30
2019-01-25T05:08:47.090Z,45.23
2019-01-25T05:11:20.056Z,49.90
2019-01-25T05:13:50.890Z,50.00
2019-01-25T05:16:20.407Z,48.70
2019-01-25T05:18:51.408Z,50.13
2019-01-25T05:21:23.074Z,46.70
2019-01-25T05:23:54.508Z,47.23
2019-01-25T05:26:25.802Z,46.23
2019-01-25T05:28:56.853Z,48.93
2019-01-25T05:31:34.935Z,47.13
2019-01-25T05:34:06.645Z,49.47
2019-01-25T05:36:36.888Z,53.33
2019-01-25T05:39:08.992Z,42.83
2019-01-25T05:41:40.434Z,47.63
2019-01-25T05:44:11.003Z,48.27
2019-01-25T05:46:41.497Z,48.67
2019-01-25T05:49:10.983Z,50.53
2019-01-25T05:51:40.459Z,45.23
2019-01-25T05:54:11.589Z,47.43
2019-01-25T05:56:44.689Z,51.53
2019-01-25T05:59:14.501Z,53.00
2019-01-25T06:01:48.389Z,50.20
2019-01-25T06:04:18.714Z,48.10
2019-01-25T06:06:50.708Z,49.20
2019-01-25T06:09:26.751Z,49.83
2019-01-25T06:11:56.504Z,48.27
2019-01-25T06:14:26.484Z,50.43
2019-01-25T06:16:58.267Z,53.77
2019-01-25T06:19:28.669Z,49.30
2019-01-25T06:22:05.385Z,49.90
2019-01-25T06:24:35.137Z,46.50
2019-01-25T06:27:09.557Z,48.83
2019-01-25T06:29:39.036Z,48.10
2019-01-25T06:32:08.995Z,48.00
2019-01-25T06:34:38.487Z,52.40
2019-01-25T06:37:13.102Z,52.83
2019-01-25T06:39:46.876Z,56.47
2019-01-25T06:42:19.151Z,52.13
2019-01-25T06:44:49.772Z,57.50
2019-01-25T06:47:22.871Z,49.73
2019-01-25T06:49:54.692Z,58.90
2019-01-25T06:52:24.271Z,42.57
2019-01-25T06:54:58.581Z,52.43
2019-01-25T06:57:34.781Z,45.50
2019-01-25T07:00:06.462Z,49.57
2019-01-25T07:02:38.787Z,45.50
2019-01-25T07:05:10.478Z,44.57
2019-01-25T07:07:41.368Z,50.90
2019-01-25T07:10:15.239Z,50.70
2019-01-25T07:12:47.074Z,49.50
2019-01-25T07:15:22.458Z,42.33
2019-01-25T07:17:51.991Z,47.73
2019-01-25T07:20:22.555Z,51.80
2019-01-25T07:22:52.997Z,48.97
2019-01-25T07:25:22.207Z,52.60
2019-01-25T07:27:52.149Z,50.83
2019-01-25T07:30:21.758Z,44.70
2019-01-25T07:32:50.944Z,46.63
2019-01-25T07:35:21.916Z,40.53
2019-01-25T07:37:51.890Z,37.83
2019-01-25T07:40:21.148Z,40.20
2019-01-25T07:42:50.725Z,50.70
2019-01-25T07:45:19.954Z,43.57
2019-01-25T07:47:49.109Z,41.23
2019-01-25T07:50:19.536Z,44.33
2019-01-25T07:52:49.046Z,46.20
2019-01-25T07:55:19.009Z,44.60
2019-01-25T07:57:49.521Z,48.03
2019-01-25T08:00:19.148Z,54.93
2019-01-25T08:02:48.678Z,46.90
2019-01-25T08:05:19.152Z,38.77
2019-01-25T08:07:48.745Z,37.30
2019-01-25T08:10:19.526Z,36.00
2019-01-25T08:12:48.874Z,37.07
2019-01-25T08:15:19.488Z,36.67
2019-01-25T08:17:48.764Z,35.53
2019-01-25T08:20:18.217Z,38.33
2019-01-25T08:22:47.396Z,35.80
2019-01-25T08:25:17.232Z,36.30
2019-01-25T08:27:46.823Z,36.87
2019-01-25T08:30:18.611Z,34.03
2019-01-25T08:32:51.388Z,36.20
2019-01-25T08:35:22.804Z,34.90
2019-01-25T08:37:55.538Z,35.90
2019-01-25T08:40:25.180Z,30.47
2019-01-25T08:42:54.464Z,35.37
2019-01-25T08:45:25.469Z,34.43
2019-01-25T08:47:55.463Z,37.17
2019-01-25T08:50:24.973Z,34.67
2019-01-25T08:52:54.230Z,31.60
2019-01-25T08:55:24.486Z,37.60
2019-01-25T08:57:53.994Z,33.03
2019-01-25T09:00:23.719Z,31.23
2019-01-25T09:02:54.195Z,39.30
2019-01-25T09:05:23.677Z,35.13
2019-01-25T09:07:53.219Z,45.40
2019-01-25T09:10:23.636Z,37.47
2019-01-25T09:12:53.196Z,36.43
2019-01-25T09:15:25.894Z,31.10
2019-01-25T09:17:55.653Z,31.07
2019-01-25T09:20:25.333Z,30.17
2019-01-25T09:22:56.376Z,31.30
2019-01-25T09:25:26.087Z,31.10
2019-01-25T09:27:55.310Z,33.43
2019-01-25T09:30:25.876Z,33.87
2019-01-25T09:32:55.402Z,31.97
2019-01-25T09:35:25.253Z,34.37
2019-01-25T09:37:58.950Z,35.47
2019-01-25T09:40:28.529Z,32.53
2019-01-25T09:42:58.455Z,36.33
2019-01-25T09:45:28.135Z,32.43
2019-01-25T09:47:57.786Z,39.10
2019-01-25T09:50:27.449Z,33.80
2019-01-25T09:52:56.767Z,33.93
2019-01-25T09:55:27.159Z,34.90
2019-01-25T09:57:57.313Z,35.53
2019-01-25T10:00:32.966Z,37.60
2019-01-25T10:03:02.125Z,35.57
2019-01-25T10:05:31.344Z,37.83
2019-01-25T10:08:02.344Z,39.30
2019-01-25T10:10:31.614Z,38.13
2019-01-25T10:13:01.146Z,34.73
2019-01-25T10:15:31.895Z,46.47
2019-01-25T10:18:01.421Z,45.73
2019-01-25T10:20:30.981Z,45.07
2019-01-25T10:23:00.493Z,41.73
2019-01-25T10:25:33.074Z,50.73
2019-01-25T10:28:02.243Z,44.27
2019-01-25T10:30:36.710Z,47.43
2019-01-25T10:33:06.860Z,49.23
2019-01-25T10:35:42.127Z,51.63
2019-01-25T10:38:12.822Z,49.03
2019-01-25T10:40:44.673Z,50.27
2019-01-25T10:43:15.168Z,46.20
2019-01-25T10:45:44.420Z,47.53
2019-01-25T10:48:13.597Z,47.07
2019-01-25T10:50:42.799Z,45.23
2019-01-25T10:53:11.989Z,51.87
2019-01-25T10:55:46.775Z,48.07
2019-01-25T10:58:23.432Z,57.03
2019-01-25T11:00:55.739Z,44.83
2019-01-25T11:03:28.534Z,48.93
2019-01-25T11:06:00.761Z,47.30
2019-01-25T11:08:30.254Z,44.10
2019-01-25T11:11:00.784Z,44.27
2019-01-25T11:13:32.913Z,45.33
2019-01-25T11:16:02.883Z,43.50
2019-01-25T11:18:32.391Z,40.90
2019-01-25T11:21:01.861Z,38.90
2019-01-25T11:23:31.822Z,36.47
2019-01-25T11:26:01.767Z,43.70
2019-01-25T11:28:31.589Z,47.63
2019-01-25T11:31:02.108Z,47.83
2019-01-25T11:33:32.756Z,49.97
2019-01-25T11:36:02.453Z,55.50
2019-01-25T11:38:33.471Z,53.03
2019-01-25T11:41:07.278Z,51.10
2019-01-25T11:43:36.706Z,58.93
2019-01-25T11:46:06.321Z,52.93
2019-01-25T11:48:35.990Z,58.00
2019-01-25T11:51:05.559Z,62.97
2019-01-25T11:53:35.603Z,60.03
2019-01-25T11:56:05.832Z,65.33
2019-01-25T11:58:35.278Z,72.63
2019-01-25T12:01:05.869Z,76.47
2019-01-25T12:03:35.829Z,80.40
2019-01-25T12:06:09.052Z,72.30
2019-01-25T12:08:38.280Z,85.50
2019-01-25T12:11:07.806Z,76.37
2019-01-25T12:13:37.343Z,82.73
2019-01-25T12:16:09.403Z,89.20
2019-01-25T12:18:38.617Z,95.43
2019-01-25T12:21:08.493Z,102.13
2019-01-25T12:23:37.679Z,89.73
2019-01-25T12:26:07.137Z,88.60
2019-01-25T12:28:36.429Z,90.60
2019-01-25T12:31:05.888Z,97.53
2019-01-25T12:33:35.832Z,96.37
2019-01-25T12:36:05.118Z,102.63
2019-01-25T12:38:36.604Z,97.57
2019-01-25T12:41:06.235Z,99.57
2019-01-25T12:43:35.544Z,103.70
2019-01-25T12:46:05.660Z,95.77
2019-01-25T12:48:36.518Z,100.17
2019-01-25T12:51:22.693Z,101.20
2019-01-25T12:53:51.922Z,107.97
2019-01-25T12:56:21.664Z,97.60
2019-01-25T12:58:51.135Z,106.67
2019-01-25T13:01:24.048Z,94.17
2019-01-25T13:03:54.580Z,102.23
2019-01-25T13:06:25.736Z,91.03
2019-01-25T13:09:00.236Z,106.10
2019-01-25T13:11:29.707Z,100.53
2019-01-25T13:14:03.720Z,93.07
2019-01-25T13:16:34.325Z,101.83
2019-01-25T13:19:03.789Z,99.43
2019-01-25T13:21:34.167Z,105.40
2019-01-25T13:24:04.433Z,106.27
2019-01-25T13:26:34.687Z,94.63
2019-01-25T13:29:07.071Z,97.30
2019-01-25T13:31:36.385Z,97.03
2019-01-25T13:34:05.653Z,98.90
2019-01-25T13:36:35.078Z,95.10
2019-01-25T13:39:07.632Z,93.43
2019-01-25T13:41:38.105Z,94.83
2019-01-25T13:44:08.201Z,94.37
2019-01-25T13:46:37.817Z,109.07
2019-01-25T13:49:07.003Z,101.07
2019-01-25T13:51:36.419Z,102.67
2019-01-25T13:54:07.842Z,96.23
2019-01-25T13:56:37.995Z,111.27
2019-01-25T13:59:07.996Z,104.67
2019-01-25T14:01:38.485Z,102.40
2019-01-25T14:04:09.717Z,98.07
2019-01-25T14:06:39.190Z,118.07
2019-01-25T14:09:10.562Z,103.13
2019-01-25T14:11:41.189Z,100.63
2019-01-25T14:14:13.432Z,109.43
2019-01-25T14:16:44.168Z,96.23
2019-01-25T14:19:13.372Z,102.10
2019-01-25T14:21:42.903Z,105.13
2019-01-25T14:24:16.936Z,103.97
2019-01-25T14:26:47.223Z,108.00
2019-01-25T14:29:17.312Z,115.50
2019-01-25T14:31:46.497Z,108.87
2019-01-25T14:34:15.721Z,111.37
2019-01-25T14:36:44.938Z,103.97
2019-01-25T14:39:14.144Z,104.00
2019-01-25T14:41:43.668Z,111.83
2019-01-25T14:44:13.839Z,113.27
2019-01-25T14:46:43.439Z,106.80
2019-01-25T14:49:12.747Z,108.07
2019-01-25T14:51:43.030Z,114.00
2019-01-25T14:54:13.597Z,113.93
2019-01-25T14:56:45.525Z,109.93
2019-01-25T14:59:15.735Z,109.23
2019-01-25T15:01:46.292Z,102.50
2019-01-25T15:04:18.107Z,106.13
2019-01-25T15:06:47.551Z,106.07
2019-01-25T15:09:16.771Z,112.13
2019-01-25T15:11:46.344Z,99.93
2019-01-25T15:14:16.451Z,109.57
2019-01-25T15:16:46.047Z,108.63
2019-01-25T15:19:16.118Z,98.77
2019-01-25T15:21:45.631Z,102.17
2019-01-25T15:24:15.939Z,102.03
2019-01-25T15:26:45.669Z,104.50
2019-01-25T15:29:18.954Z,109.13
2019-01-25T15:31:51.692Z,98.70
2019-01-25T15:34:21.379Z,110.20
2019-01-25T15:36:50.761Z,99.60
2019-01-25T15:39:22.296Z,110.37
2019-01-25T15:41:51.552Z,103.60
2019-01-25T15:44:22.855Z,100.27
2019-01-25T15:46:52.043Z,97.00
2019-01-25T15:49:21.888Z,103.87
2019-01-25T15:51:51.552Z,103.50
2019-01-25T15:54:20.775Z,111.40
2019-01-25T15:56:50.337Z,109.10
2019-01-25T15:59:19.852Z,101.43
2019-01-25T16:01:51.864Z,102.67
2019-01-25T16:04:21.597Z,98.63
2019-01-25T16:06:52.958Z,108.23
2019-01-25T16:09:23.679Z,108.77
2019-01-25T16:11:53.860Z,97.13
2019-01-25T16:14:24.797Z,107.50
2019-01-25T16:16:55.202Z,101.57
2019-01-25T16:19:24.756Z,102.80
2019-01-25T16:21:55.259Z,107.50
2019-01-25T16:24:24.499Z,101.53
2019-01-25T16:26:55.720Z,103.70
2019-01-25T16:29:25.015Z,115.57
2019-01-25T16:31:54.485Z,103.43
2019-01-25T16:34:24.463Z,111.53
2019-01-25T16:36:55.474Z,114.73
2019-01-25T16:39:25.894Z,102.00
2019-01-25T16:41:55.853Z,109.63
2019-01-25T16:44:27.151Z,105.37
2019-01-25T16:46:57.334Z,107.63
2019-01-25T16:49:46.853Z,103.53
2019-01-25T16:52:16.044Z,103.30
2019-01-25T16:54:46.340Z,114.90
2019-01-25T16:57:15.533Z,109.73
2019-01-25T17:00:09.371Z,114.63
2019-01-25T17:03:01.357Z,103.17
2019-01-25T17:05:32.488Z,97.97
2019-01-25T17:08:02.956Z,109.43
2019-01-25T17:10:33.460Z,106.90
2019-01-25T17:13:05.053Z,112.97
2019-01-25T17:15:35.362Z,104.63
2019-01-25T17:18:06.028Z,106.07
2019-01-25T17:20:38.555Z,116.57
2019-01-25T17:23:09.208Z,105.00
2019-01-25T17:25:45.462Z,109.73
2019-01-25T17:28:17.485Z,103.97
2019-01-25T17:30:47.271Z,116.30
2019-01-25T17:33:16.754Z,101.00
2019-01-25T17:35:46.307Z,101.33
2019-01-25T17:38:16.608Z,108.20
2019-01-25T17:40:49.239Z,112.73
2019-01-25T17:43:22.023Z,102.77
2019-01-25T17:45:54.855Z,100.53
2019-01-25T17:48:27.230Z,95.93
2019-01-25T17:50:58.734Z,97.83
2019-01-25T17:53:29.682Z,100.07
2019-01-25T17:55:59.371Z,95.00
2019-01-25T17:58:30.283Z,93.10
2019-01-25T18:00:59.576Z,97.87
2019-01-25T18:03:31.822Z,101.93
2019-01-25T18:06:03.845Z,94.27
2019-01-25T18:08:35.785Z,89.40
2019-01-25T18:11:05.937Z,92.73
2019-01-25T18:13:41.033Z,94.47
2019-01-25T18:16:11.295Z,89.57
2019-01-25T18:18:43.370Z,90.60
2019-01-25T18:21:13.681Z,90.87
2019-01-25T18:23:42.871Z,86.97
2019-01-25T18:26:22.564Z,80.90
2019-01-25T18:28:58.522Z,84.03
2019-01-25T18:31:32.219Z,83.67
2019-01-25T18:34:02.903Z,79.00
2019-01-25T18:36:32.110Z,83.33
2019-01-25T18:39:01.801Z,81.83
2019-01-25T18:41:31.555Z,79.60
2019-01-25T18:44:00.849Z,83.40
2019-01-25T18:46:31.058Z,83.03
2019-01-25T18:49:01.623Z,83.13
2019-01-25T18:51:33.213Z,84.67
2019-01-25T18:54:05.045Z,86.57
2019-01-25T18:56:39.590Z,78.53
2019-01-25T18:59:11.238Z,83.23
2019-01-25T19:01:41.981Z,81.00
2019-01-25T19:04:11.946Z,83.43
2019-01-25T19:06:42.523Z,85.83
2019-01-25T19:09:14.834Z,87.87
2019-01-25T19:11:44.708Z,90.40
2019-01-25T19:14:15.993Z,82.27
2019-01-25T19:16:56.952Z,81.60
2019-01-25T19:19:28.134Z,75.37
2019-01-25T19:21:58.603Z,75.17
2019-01-25T19:24:29.089Z,82.23
2019-01-25T19:27:00.095Z,73.33
2019-01-25T19:29:30.089Z,86.93
2019-01-25T19:31:59.838Z,78.97
2019-01-25T19:34:29.137Z,71.97
2019-01-25T19:37:00.191Z,71.33
2019-01-25T19:39:29.777Z,80.03
2019-01-25T19:41:59.602Z,72.50
2019-01-25T19:44:30.509Z,66.40
2019-01-25T19:47:02.408Z,73.57
2019-01-25T19:49:31.417Z,70.53
2019-01-25T19:52:03.667Z,70.80
2019-01-25T19:54:33.796Z,71.07
2019-01-25T19:57:04.012Z,70.43
2019-01-25T19:59:34.352Z,126.57
2019-01-25T20:02:03.881Z,71.63
2019-01-25T20:04:33.347Z,72.07
2019-01-25T20:07:02.698Z,76.23
2019-01-25T20:09:33.845Z,76.80
2019-01-25T20:12:03.285Z,75.43
2019-01-25T20:14:33.926Z,72.20
2019-01-25T20:17:03.126Z,75.03
2019-01-25T20:19:33.484Z,85.97
2019-01-25T20:22:05.664Z,78.00
2019-01-25T20:24:35.695Z,73.77
2019-01-25T20:27:10.853Z,79.07
2019-01-25T20:29:44.509Z,75.60
2019-01-25T20:32:18.589Z,74.80
2019-01-25T20:34:51.726Z,73.17
2019-01-25T20:37:20.966Z,71.43
2019-01-25T20:39:51.336Z,81.93
2019-01-25T20:42:21.534Z,80.23
2019-01-25T20:44:51.342Z,72.53
2019-01-25T20:47:20.790Z,75.57
2019-01-25T20:49:52.052Z,73.53
2019-01-25T20:52:23.005Z,73.63
2019-01-25T20:54:54.463Z,79.27
2019-01-25T20:57:28.750Z,69.40
2019-01-25T20:59:59.189Z,79.00
2019-01-25T21:02:28.933Z,83.00
2019-01-25T21:05:00.417Z,82.03
2019-01-25T21:07:29.892Z,79.90
2019-01-25T21:09:59.365Z,73.50
2019-01-25T21:12:28.567Z,77.83
2019-01-25T21:14:58.087Z,74.00
2019-01-25T21:17:27.255Z,77.03
2019-01-25T21:19:57.016Z,80.97
2019-01-25T21:22:26.750Z,80.50
2019-01-25T21:24:58.874Z,76.77
2019-01-25T21:27:28.318Z,73.70
2019-01-25T21:30:00.435Z,78.37
2019-01-25T21:32:32.946Z,83.03
2019-01-25T21:35:02.142Z,81.00
2019-01-25T21:37:34.047Z,77.10
2019-01-25T21:40:08.441Z,72.00
2019-01-25T21:42:38.966Z,68.53
2019-01-25T21:45:11.167Z,75.80
2019-01-25T21:47:40.169Z,77.03
2019-01-25T21:50:13.052Z,72.93
2019-01-25T21:52:47.191Z,81.03
2019-01-25T21:55:17.371Z,74.57
2019-01-25T21:57:48.083Z,77.93
2019-01-25T22:00:20.790Z,74.83
2019-01-25T22:02:51.141Z,70.47
2019-01-25T22:05:25.224Z,73.53
2019-01-25T22:07:56.573Z,67.97
2019-01-25T22:10:49.572Z,70.07
2019-01-25T22:13:19.043Z,75.13
2019-01-25T22:15:51.047Z,67.63
2019-01-25T22:18:25.044Z,69.60
2019-01-25T22:20:56.251Z,63.83
2019-01-25T22:23:27.712Z,63.10
2019-01-25T22:25:57.160Z,59.50
2019-01-25T22:28:28.659Z,56.40
2019-01-25T22:30:57.839Z,57.07
2019-01-25T22:33:28.329Z,66.00
2019-01-25T22:35:57.494Z,58.57
2019-01-25T22:38:27.913Z,58.43
2019-01-25T22:40:59.213Z,61.20
2019-01-25T22:43:32.400Z,58.33
2019-01-25T22:46:03.409Z,54.87
2019-01-25T22:48:33.764Z,57.37
2019-01-25T22:51:04.405Z,58.57
2019-01-25T22:53:33.859Z,53.50
2019-01-25T22:56:03.616Z,58.80
2019-01-25T22:58:35.114Z,61.07
2019-01-25T23:01:21.522Z,59.73
2019-01-25T23:04:34.014Z,69.50
2019-01-25T23:07:27.440Z,56.10
2019-01-25T23:10:08.576Z,59.70
2019-01-25T23:12:37.773Z,59.33
2019-01-25T23:15:11.034Z,62.73
2019-01-25T23:17:40.799Z,61.50
2019-01-25T23:22:41.754Z,54.80
2019-01-25T23:25:12.748Z,55.10
2019-01-25T23:27:44.362Z,59.83
2019-01-25T23:30:16.863Z,56.17
2019-01-25T23:32:46.354Z,54.43
2019-01-25T23:35:17.354Z,53.33
2019-01-25T23:37:47.447Z,55.20
2019-01-25T23:40:16.886Z,50.57
2019-01-25T23:42:46.380Z,54.60
2019-01-25T23:45:16.880Z,52.97
2019-01-25T23:47:46.850Z,52.80
2019-01-25T23:50:20.981Z,51.37
2019-01-25T23:52:50.968Z,55.33
2019-01-25T23:55:21.211Z,52.07
2019-01-25T23:57:51.737Z,52.60
